createdAt,value
2023-04-26T00:01:39.194Z,99480.94
2023-04-26T00:04:08.851Z,99480.28
2023-04-26T00:06:37.478Z,99483.88
2023-04-26T00:09:06.844Z,99482.59
2023-04-26T00:11:35.030Z,99479.53
2023-04-26T00:14:03.276Z,99478.91
2023-04-26T00:16:31.743Z,99476.69
2023-04-26T00:19:01.495Z,99476.31
2023-04-26T00:21:29.880Z,99477.69
2023-04-26T00:23:58.613Z,99480.38
2023-04-26T00:26:26.906Z,99476.56
2023-04-26T00:28:55.339Z,99479.72
2023-04-26T00:31:23.593Z,99467.84
2023-04-26T00:33:52.807Z,99471.97
2023-04-26T00:36:22.495Z,99467.13
2023-04-26T00:38:51.073Z,99468.53
2023-04-26T00:41:19.561Z,99463.66
2023-04-26T00:43:47.831Z,99467.06
2023-04-26T00:46:16.379Z,99466.69
2023-04-26T00:48:44.752Z,99457.34
2023-04-26T00:51:13.940Z,99462.63
2023-04-26T00:53:44.324Z,99463.09
2023-04-26T00:56:13.350Z,99459.41
2023-04-26T00:58:41.763Z,99449.91
2023-04-26T01:01:10.186Z,99459.63
2023-04-26T01:03:38.684Z,99452.38
2023-04-26T01:06:07.215Z,99452.81
2023-04-26T01:08:35.797Z,99449.03
2023-04-26T01:11:05.872Z,99455.31
2023-04-26T01:13:34.414Z,99445.69
2023-04-26T01:16:04.184Z,99450.41
2023-04-26T01:18:32.563Z,99449.53
2023-04-26T01:21:02.145Z,99447.63
2023-04-26T01:23:33.068Z,99438.81
2023-04-26T01:26:01.337Z,99446.72
2023-04-26T01:28:29.694Z,99444.50
2023-04-26T01:30:57.903Z,99437.47
2023-04-26T01:33:26.279Z,99439.69
2023-04-26T01:35:54.591Z,99442.50
2023-04-26T01:38:23.196Z,99437.00
2023-04-26T01:40:52.856Z,99429.72
2023-04-26T01:43:23.073Z,99427.31
2023-04-26T01:45:51.496Z,99423.84
2023-04-26T01:48:19.747Z,99420.47
2023-04-26T01:50:47.927Z,99424.69
2023-04-26T01:53:16.203Z,99424.06
2023-04-26T01:55:44.553Z,99418.69
2023-04-26T01:58:14.114Z,99422.50
2023-04-26T02:00:42.397Z,99420.81
2023-04-26T02:03:10.836Z,99417.91
2023-04-26T02:05:39.155Z,99414.78
2023-04-26T02:08:07.473Z,99416.22
2023-04-26T02:10:36.165Z,99419.88
2023-04-26T02:13:04.391Z,99416.28
2023-04-26T02:15:34.120Z,99417.00
2023-04-26T02:18:02.801Z,99421.66
2023-04-26T02:20:31.057Z,99422.31
2023-04-26T02:22:59.293Z,99427.22
2023-04-26T02:25:28.145Z,99423.94
2023-04-26T02:27:56.374Z,99425.59
2023-04-26T02:30:24.555Z,99425.16
2023-04-26T02:32:56.776Z,99431.88
2023-04-26T02:35:25.553Z,99424.97
2023-04-26T02:37:53.745Z,99422.13
2023-04-26T02:40:22.538Z,99419.88
2023-04-26T02:42:50.759Z,99417.97
2023-04-26T02:45:20.419Z,99417.66
2023-04-26T02:47:48.683Z,99418.19
2023-04-26T02:50:18.374Z,99411.25
2023-04-26T02:52:46.648Z,99403.69
2023-04-26T02:55:14.902Z,99407.38
2023-04-26T02:57:43.264Z,99405.53
2023-04-26T03:00:14.134Z,99408.28
2023-04-26T03:02:42.879Z,99414.81
2023-04-26T03:05:11.476Z,99412.19
2023-04-26T03:07:41.086Z,99409.72
2023-04-26T03:10:10.261Z,99412.41
2023-04-26T03:12:38.693Z,99408.34
2023-04-26T03:15:07.725Z,99402.53
2023-04-26T03:17:36.048Z,99404.88
2023-04-26T03:20:06.288Z,99404.22
2023-04-26T03:22:34.606Z,99405.78
2023-04-26T03:25:05.556Z,99406.56
2023-04-26T03:27:33.736Z,99410.50
2023-04-26T03:30:02.014Z,99409.19
2023-04-26T03:32:30.570Z,99410.88
2023-04-26T03:34:58.965Z,99409.78
2023-04-26T03:37:27.372Z,99413.06
2023-04-26T03:39:55.724Z,99418.22
2023-04-26T03:42:25.586Z,99410.78
2023-04-26T03:44:56.551Z,99407.44
2023-04-26T03:47:24.846Z,99407.69
2023-04-26T03:49:53.067Z,99416.75
2023-04-26T03:52:21.494Z,99414.09
2023-04-26T03:54:49.799Z,99415.44
2023-04-26T03:57:18.079Z,99416.44
2023-04-26T03:59:47.676Z,99418.56
2023-04-26T04:02:16.007Z,99426.16
2023-04-26T04:04:44.556Z,99412.72
2023-04-26T04:07:13.041Z,99423.81
2023-04-26T04:09:41.332Z,99427.84
2023-04-26T04:12:09.786Z,99423.44
2023-04-26T04:14:37.991Z,99427.25
2023-04-26T04:17:07.734Z,99434.66
2023-04-26T04:19:35.981Z,99428.53
2023-04-26T04:22:04.379Z,99427.50
2023-04-26T04:24:34.455Z,99422.78
2023-04-26T04:27:03.554Z,99416.53
2023-04-26T04:29:31.967Z,99420.81
2023-04-26T04:32:00.249Z,99420.44
2023-04-26T04:34:30.357Z,99419.00
2023-04-26T04:36:58.663Z,99419.91
2023-04-26T04:39:27.095Z,99421.56
2023-04-26T04:41:55.390Z,99429.41
2023-04-26T04:44:24.448Z,99427.25
2023-04-26T04:46:52.964Z,99419.28
2023-04-26T04:49:21.302Z,99420.94
2023-04-26T04:51:50.958Z,99419.75
2023-04-26T04:54:20.196Z,99413.78
2023-04-26T04:56:48.457Z,99416.22
2023-04-26T04:59:16.780Z,99411.50
2023-04-26T05:01:45.977Z,99408.19
2023-04-26T05:04:14.428Z,99409.25
2023-04-26T05:06:43.086Z,99410.19
2023-04-26T05:09:12.693Z,99410.72
2023-04-26T05:11:41.129Z,99411.84
2023-04-26T05:14:09.401Z,99419.41
2023-04-26T05:16:38.502Z,99418.75
2023-04-26T05:19:09.175Z,99415.50
2023-04-26T05:21:37.865Z,99422.72
2023-04-26T05:24:06.471Z,99415.91
2023-04-26T05:26:37.068Z,99422.69
2023-04-26T05:29:05.403Z,99421.56
2023-04-26T05:31:33.656Z,99425.53
2023-04-26T05:34:02.149Z,99422.91
2023-04-26T05:36:30.395Z,99423.88
2023-04-26T05:38:58.700Z,99424.72
2023-04-26T05:41:27.174Z,99423.28
2023-04-26T05:43:57.183Z,99426.75
2023-04-26T05:46:25.580Z,99425.13
2023-04-26T05:48:53.916Z,99419.41
2023-04-26T05:51:22.562Z,99429.44
2023-04-26T05:53:51.390Z,99428.06
2023-04-26T05:56:19.935Z,99431.91
2023-04-26T05:58:48.566Z,99431.91
2023-04-26T06:01:18.212Z,99433.03
2023-04-26T06:03:46.638Z,99435.22
2023-04-26T06:06:15.535Z,99433.56
2023-04-26T06:08:44.339Z,99438.94
2023-04-26T06:11:12.927Z,99442.69
2023-04-26T06:13:41.340Z,99443.91
2023-04-26T06:16:09.718Z,99450.59
2023-04-26T06:18:39.507Z,99441.63
2023-04-26T06:21:08.777Z,99445.94
2023-04-26T06:23:37.003Z,99458.28
2023-04-26T06:26:06.411Z,99449.81
2023-04-26T06:28:34.797Z,99453.81
2023-04-26T06:31:04.648Z,99455.19
2023-04-26T06:33:33.745Z,99468.44
2023-04-26T06:36:03.380Z,99470.53
2023-04-26T06:38:31.621Z,99470.41
2023-04-26T06:40:59.866Z,99468.97
2023-04-26T06:43:28.199Z,99468.75
2023-04-26T06:45:56.644Z,99478.13
2023-04-26T06:48:24.985Z,99483.97
2023-04-26T06:50:53.443Z,99484.97
2023-04-26T06:53:23.430Z,99480.94
2023-04-26T06:55:53.335Z,99487.41
2023-04-26T06:58:21.650Z,99485.59
2023-04-26T07:00:50.471Z,99484.31
2023-04-26T07:03:18.908Z,99478.00
2023-04-26T07:05:47.493Z,99486.47
2023-04-26T07:08:16.063Z,99479.09
2023-04-26T07:10:45.831Z,99485.97
2023-04-26T07:13:14.054Z,99483.56
2023-04-26T07:15:42.453Z,99476.00
2023-04-26T07:18:12.527Z,99480.34
2023-04-26T07:20:40.765Z,99478.63
2023-04-26T07:23:09.170Z,99483.41
2023-04-26T07:25:37.368Z,99474.03
2023-04-26T07:28:07.093Z,99468.22
2023-04-26T07:30:35.791Z,99467.44
2023-04-26T07:33:04.193Z,99472.41
2023-04-26T07:35:34.873Z,99473.78
2023-04-26T07:38:03.417Z,99477.00
2023-04-26T07:40:31.903Z,99479.56
2023-04-26T07:43:00.309Z,99470.88
2023-04-26T07:45:30.124Z,99477.13
2023-04-26T07:47:58.931Z,99477.94
2023-04-26T07:50:27.330Z,99474.91
2023-04-26T07:52:55.638Z,99475.19
2023-04-26T07:55:24.136Z,99476.88
2023-04-26T07:57:52.389Z,99480.72
2023-04-26T08:00:22.668Z,99482.28
2023-04-26T08:02:52.847Z,99485.25
2023-04-26T08:05:22.078Z,99490.63
2023-04-26T08:07:50.561Z,99483.84
2023-04-26T08:10:19.156Z,99482.81
2023-04-26T08:12:47.514Z,99482.03
2023-04-26T08:15:16.326Z,99484.50
2023-04-26T08:17:44.852Z,99493.91
2023-04-26T08:20:15.129Z,99486.19
2023-04-26T08:22:43.455Z,99489.69
2023-04-26T08:25:11.892Z,99490.09
2023-04-26T08:27:40.778Z,99486.78
2023-04-26T08:30:09.824Z,99489.06
2023-04-26T08:32:39.161Z,99492.81
2023-04-26T08:35:07.970Z,99492.81
2023-04-26T08:37:38.064Z,99475.63
2023-04-26T08:40:09.448Z,99488.13
2023-04-26T08:42:42.363Z,99485.91
2023-04-26T08:45:11.811Z,99484.03
2023-04-26T08:47:45.603Z,99486.72
2023-04-26T08:50:15.842Z,99486.25
2023-04-26T08:52:45.804Z,99485.94
2023-04-26T08:55:16.573Z,99492.94
2023-04-26T08:57:47.887Z,99492.09
2023-04-26T09:00:17.819Z,99498.28
2023-04-26T09:02:49.354Z,99499.97
2023-04-26T09:05:17.837Z,99503.88
2023-04-26T09:07:48.647Z,99499.84
2023-04-26T09:10:21.460Z,99503.94
2023-04-26T09:12:53.702Z,99512.22
2023-04-26T09:15:23.186Z,99509.53
2023-04-26T09:17:51.899Z,99513.97
2023-04-26T09:20:23.295Z,99509.25
2023-04-26T09:22:54.056Z,99511.44
2023-04-26T09:25:30.077Z,99512.25
2023-04-26T09:27:59.504Z,99504.97
2023-04-26T09:30:28.636Z,99503.28
2023-04-26T09:32:58.544Z,99503.94
2023-04-26T09:35:29.049Z,99504.78
2023-04-26T09:38:07.956Z,99505.63
2023-04-26T09:40:42.398Z,99515.63
2023-04-26T09:43:13.004Z,99517.44
2023-04-26T09:45:50.597Z,99512.69
2023-04-26T09:48:22.536Z,99517.56
2023-04-26T09:50:53.538Z,99515.44
2023-04-26T09:53:32.251Z,99509.72
2023-04-26T09:56:08.986Z,99501.91
2023-04-26T09:58:38.684Z,99496.09
2023-04-26T10:01:08.447Z,99502.34
2023-04-26T10:03:38.050Z,99503.38
2023-04-26T10:06:07.055Z,99508.50
2023-04-26T10:08:37.242Z,99502.03
2023-04-26T10:11:07.766Z,99511.56
2023-04-26T10:13:36.832Z,99516.66
2023-04-26T10:16:06.923Z,99503.81
2023-04-26T10:18:35.865Z,99500.88
2023-04-26T10:21:11.850Z,99499.56
2023-04-26T10:23:42.541Z,99499.50
2023-04-26T10:26:54.718Z,99490.28
2023-04-26T10:29:24.860Z,99486.94
2023-04-26T10:32:17.018Z,99495.47
2023-04-26T10:34:45.706Z,99490.88
2023-04-26T10:37:14.928Z,99492.94
2023-04-26T10:39:46.148Z,99497.53
2023-04-26T10:42:26.746Z,99495.22
2023-04-26T10:44:55.913Z,99499.63
2023-04-26T10:47:27.137Z,99492.84
2023-04-26T10:50:05.718Z,99487.56
2023-04-26T10:52:34.853Z,99489.44
2023-04-26T10:55:06.439Z,99486.59
2023-04-26T10:57:52.119Z,99482.81
2023-04-26T11:00:32.098Z,99484.38
2023-04-26T11:03:05.624Z,99485.16
2023-04-26T11:05:57.196Z,99488.78
2023-04-26T11:08:30.364Z,99486.44
2023-04-26T11:11:09.007Z,99485.41
2023-04-26T11:13:38.780Z,99483.59
2023-04-26T11:16:08.225Z,99481.44
2023-04-26T11:18:38.899Z,99482.78
2023-04-26T11:21:08.309Z,99489.53
2023-04-26T11:23:37.770Z,99485.22
2023-04-26T11:26:09.649Z,99486.13
2023-04-26T11:28:39.074Z,99489.31
2023-04-26T11:31:08.486Z,99479.44
2023-04-26T11:33:36.734Z,99485.59
2023-04-26T11:36:05.682Z,99483.72
2023-04-26T11:38:34.154Z,99479.94
2023-04-26T11:41:03.909Z,99476.47
2023-04-26T11:43:37.272Z,99478.13
2023-04-26T11:46:06.967Z,99472.34
2023-04-26T11:48:36.789Z,99471.22
2023-04-26T11:51:07.500Z,99465.84
2023-04-26T11:53:40.636Z,99477.38
2023-04-26T11:56:18.762Z,99471.59
2023-04-26T11:58:52.783Z,99466.00
2023-04-26T12:01:26.009Z,99463.03
2023-04-26T12:03:56.057Z,99471.78
2023-04-26T12:06:32.982Z,99473.38
2023-04-26T12:09:05.610Z,99470.50
2023-04-26T12:11:34.194Z,99471.53
2023-04-26T12:14:05.123Z,99476.56
2023-04-26T12:16:33.542Z,99473.22
2023-04-26T12:19:06.024Z,99483.41
2023-04-26T12:21:42.441Z,99486.03
2023-04-26T12:24:24.957Z,99479.34
2023-04-26T12:26:53.456Z,99481.19
2023-04-26T12:29:23.614Z,99484.44
2023-04-26T12:31:52.012Z,99477.69
2023-04-26T12:34:20.428Z,99480.19
2023-04-26T12:36:48.888Z,99486.81
2023-04-26T12:39:17.254Z,99485.56
2023-04-26T12:41:46.383Z,99484.56
2023-04-26T12:44:15.124Z,99490.03
2023-04-26T12:46:45.210Z,99481.25
2023-04-26T12:49:13.491Z,99484.28
2023-04-26T12:51:41.861Z,99484.63
2023-04-26T12:54:10.163Z,99478.91
2023-04-26T12:56:43.966Z,99473.00
2023-04-26T12:59:12.537Z,99469.59
2023-04-26T13:01:41.187Z,99470.72
2023-04-26T13:04:11.333Z,99466.28
2023-04-26T13:06:39.926Z,99468.31
2023-04-26T13:09:09.166Z,99464.50
2023-04-26T13:11:37.532Z,99461.91
2023-04-26T13:14:06.944Z,99457.66
2023-04-26T13:16:35.437Z,99453.78
2023-04-26T13:19:03.928Z,99455.00
2023-04-26T13:21:34.108Z,99449.22
2023-04-26T13:24:02.348Z,99448.88
2023-04-26T13:26:30.889Z,99451.44
2023-04-26T13:28:59.127Z,99446.34
2023-04-26T13:31:27.563Z,99452.75
2023-04-26T13:33:55.876Z,99454.75
2023-04-26T13:36:24.166Z,99444.53
2023-04-26T13:38:54.107Z,99454.22
2023-04-26T13:41:23.912Z,99456.50
2023-04-26T13:43:52.176Z,99458.09
2023-04-26T13:46:20.981Z,99449.59
2023-04-26T13:48:49.280Z,99444.00
2023-04-26T13:51:19.381Z,99447.94
2023-04-26T13:53:47.727Z,99448.03
2023-04-26T13:56:17.548Z,99445.28
2023-04-26T13:58:45.812Z,99460.13
2023-04-26T14:01:14.524Z,99444.91
2023-04-26T14:03:43.046Z,99443.78
2023-04-26T14:06:11.576Z,99439.75
2023-04-26T14:08:39.863Z,99448.91
2023-04-26T14:11:08.115Z,99449.78
2023-04-26T14:13:37.856Z,99447.78
2023-04-26T14:16:06.812Z,99442.72
2023-04-26T14:18:35.165Z,99454.50
2023-04-26T14:21:03.534Z,99460.72
2023-04-26T14:23:32.039Z,99460.19
2023-04-26T14:26:00.498Z,99450.38
2023-04-26T14:28:29.298Z,99461.94
2023-04-26T14:30:59.068Z,99468.81
2023-04-26T14:33:27.573Z,99464.22
2023-04-26T14:35:56.701Z,99464.56
2023-04-26T14:38:25.080Z,99465.19
2023-04-26T14:40:53.550Z,99471.59
2023-04-26T14:43:21.905Z,99462.28
2023-04-26T14:45:50.169Z,99467.19
2023-04-26T14:48:20.287Z,99462.69
2023-04-26T14:50:48.752Z,99464.78
2023-04-26T14:53:17.039Z,99461.81
2023-04-26T14:55:45.546Z,99461.16
2023-04-26T14:58:13.781Z,99463.28
2023-04-26T15:00:43.190Z,99459.44
2023-04-26T15:03:11.767Z,99454.69
2023-04-26T15:05:41.612Z,99457.09
2023-04-26T15:08:10.102Z,99454.03
2023-04-26T15:10:38.500Z,99460.72
2023-04-26T15:13:06.834Z,99457.63
2023-04-26T15:15:35.527Z,99459.34
2023-04-26T15:18:03.978Z,99455.78
2023-04-26T15:20:32.267Z,99464.63
2023-04-26T15:23:02.026Z,99467.16
2023-04-26T15:25:30.327Z,99473.28
2023-04-26T15:27:58.606Z,99476.25
2023-04-26T15:30:27.467Z,99475.44
2023-04-26T15:32:55.996Z,99482.34
2023-04-26T15:35:25.162Z,99483.34
2023-04-26T15:37:54.203Z,99485.47
2023-04-26T15:40:24.729Z,99480.84
2023-04-26T15:42:53.072Z,99472.03
2023-04-26T15:45:21.710Z,99474.09
2023-04-26T15:47:50.089Z,99476.34
2023-04-26T15:50:18.430Z,99477.16
2023-04-26T15:52:46.650Z,99477.06
2023-04-26T15:55:15.120Z,99475.09
2023-04-26T15:57:45.094Z,99468.13
2023-04-26T16:00:14.362Z,99470.44
2023-04-26T16:02:44.869Z,99470.88
2023-04-26T16:05:14.069Z,99471.22
2023-04-26T16:07:42.435Z,99470.44
2023-04-26T16:10:11.830Z,99475.69
2023-04-26T16:12:42.268Z,99475.91
2023-04-26T16:15:12.851Z,99477.28
2023-04-26T16:17:41.295Z,99485.13
2023-04-26T16:20:10.684Z,99494.59
2023-04-26T16:22:39.274Z,99494.13
2023-04-26T16:25:08.625Z,99501.78
2023-04-26T16:27:36.963Z,99505.91
2023-04-26T16:30:05.899Z,99506.69
2023-04-26T16:32:35.751Z,99521.03
2023-04-26T16:35:04.857Z,99520.13
2023-04-26T16:37:33.177Z,99528.41
2023-04-26T16:40:01.746Z,99538.44
2023-04-26T16:42:31.749Z,99536.31
2023-04-26T16:45:00.069Z,99542.03
2023-04-26T16:47:28.295Z,99537.78
2023-04-26T16:49:58.192Z,99546.06
2023-04-26T16:52:26.606Z,99545.53
2023-04-26T16:54:54.863Z,99554.44
2023-04-26T16:57:23.066Z,99556.38
2023-04-26T16:59:51.606Z,99558.81
2023-04-26T17:02:20.038Z,99560.63
2023-04-26T17:04:49.230Z,99552.78
2023-04-26T17:07:19.005Z,99563.31
2023-04-26T17:09:47.385Z,99563.94
2023-04-26T17:12:15.697Z,99566.41
2023-04-26T17:14:44.374Z,99567.78
2023-04-26T17:17:12.801Z,99580.94
2023-04-26T17:19:41.061Z,99573.31
2023-04-26T17:22:09.421Z,99574.88
2023-04-26T17:24:39.166Z,99572.28
2023-04-26T17:27:08.205Z,99571.50
2023-04-26T17:29:36.521Z,99579.66
2023-04-26T17:32:04.863Z,99578.31
2023-04-26T17:34:33.575Z,99587.16
2023-04-26T17:37:01.935Z,99578.75
2023-04-26T17:39:30.156Z,99575.53
2023-04-26T17:41:59.847Z,99584.03
2023-04-26T17:44:28.248Z,99579.31
2023-04-26T17:46:56.554Z,99594.97
2023-04-26T17:49:25.923Z,99581.66
2023-04-26T17:51:54.340Z,99597.75
2023-04-26T17:54:22.693Z,99601.81
2023-04-26T17:56:51.041Z,99606.50
2023-04-26T17:59:20.879Z,99611.88
2023-04-26T18:01:49.226Z,99607.50
2023-04-26T18:04:17.767Z,99605.25
2023-04-26T18:06:46.565Z,99605.16
2023-04-26T18:09:14.754Z,99622.34
2023-04-26T18:11:47.828Z,99616.38
2023-04-26T18:14:16.392Z,99624.53
2023-04-26T18:16:46.083Z,99623.75
2023-04-26T18:19:14.673Z,99617.56
2023-04-26T18:21:42.995Z,99620.00
2023-04-26T18:24:11.388Z,99616.09
2023-04-26T18:26:41.036Z,99622.13
2023-04-26T18:29:09.753Z,99621.22
2023-04-26T18:31:38.070Z,99616.63
2023-04-26T18:34:10.497Z,99624.00
2023-04-26T18:36:38.995Z,99629.84
2023-04-26T18:39:08.191Z,99627.59
2023-04-26T18:41:36.619Z,99625.59
2023-04-26T18:44:10.785Z,99626.16
2023-04-26T18:46:39.156Z,99622.25
2023-04-26T18:49:09.057Z,99624.16
2023-04-26T18:51:37.532Z,99630.72
2023-04-26T18:54:06.289Z,99629.19
2023-04-26T18:56:34.614Z,99634.00
2023-04-26T18:59:03.102Z,99635.25
2023-04-26T19:01:31.438Z,99627.97
2023-04-26T19:04:00.019Z,99628.97
2023-04-26T19:06:30.021Z,99635.09
2023-04-26T19:08:58.276Z,99620.00
2023-04-26T19:11:26.898Z,99628.84
2023-04-26T19:13:55.431Z,99628.53
2023-04-26T19:16:23.895Z,99634.00
2023-04-26T19:18:53.026Z,99638.53
2023-04-26T19:21:21.278Z,99641.97
2023-04-26T19:23:51.152Z,99643.31
2023-04-26T19:26:19.522Z,99644.41
2023-04-26T19:28:47.821Z,99635.91
2023-04-26T19:31:16.469Z,99646.44
2023-04-26T19:33:46.182Z,99641.66
2023-04-26T19:36:17.245Z,99647.13
2023-04-26T19:38:45.643Z,99647.47
2023-04-26T19:41:15.599Z,99647.34
2023-04-26T19:43:43.868Z,99650.03
2023-04-26T19:46:13.266Z,99645.09
2023-04-26T19:48:41.873Z,99654.75
2023-04-26T19:51:15.580Z,99651.13
2023-04-26T19:53:43.908Z,99648.94
2023-04-26T19:56:12.389Z,99659.53
2023-04-26T19:58:42.149Z,99658.41
2023-04-26T20:01:10.687Z,99650.03
2023-04-26T20:03:41.485Z,99645.78
2023-04-26T20:06:13.930Z,99642.06
2023-04-26T20:08:42.367Z,99646.44
2023-04-26T20:11:15.317Z,99646.09
2023-04-26T20:13:45.653Z,99658.84
2023-04-26T20:16:14.155Z,99675.22
2023-04-26T20:18:42.606Z,99691.66
2023-04-26T20:21:11.227Z,99694.06
2023-04-26T20:23:39.541Z,99699.44
2023-04-26T20:26:07.827Z,99700.66
2023-04-26T20:28:38.070Z,99686.25
2023-04-26T20:31:09.610Z,99691.66
2023-04-26T20:33:37.848Z,99694.47
2023-04-26T20:36:06.505Z,99690.56
2023-04-26T20:38:34.971Z,99686.56
2023-04-26T20:41:04.630Z,99692.59
2023-04-26T20:43:33.122Z,99682.69
2023-04-26T20:46:01.607Z,99688.06
2023-04-26T20:48:31.568Z,99697.63
2023-04-26T20:51:01.085Z,99696.72
2023-04-26T20:53:29.397Z,99693.56
2023-04-26T20:55:58.337Z,99692.59
2023-04-26T20:58:27.033Z,99693.09
2023-04-26T21:00:55.939Z,99692.78
2023-04-26T21:03:24.393Z,99692.97
2023-04-26T21:05:54.320Z,99692.97
2023-04-26T21:08:23.111Z,99702.66
2023-04-26T21:10:51.383Z,99695.47
2023-04-26T21:13:20.457Z,99708.63
2023-04-26T21:15:48.912Z,99699.22
2023-04-26T21:18:17.263Z,99713.41
2023-04-26T21:20:45.606Z,99710.66
2023-04-26T21:23:15.402Z,99724.31
2023-04-26T21:25:46.549Z,99714.44
2023-04-26T21:28:15.306Z,99730.28
2023-04-26T21:30:43.549Z,99742.25
2023-04-26T21:33:12.604Z,99746.03
2023-04-26T21:35:40.912Z,99753.91
2023-04-26T21:38:09.402Z,99754.28
2023-04-26T21:40:42.655Z,99770.88
2023-04-26T21:43:11.526Z,99774.31
2023-04-26T21:45:39.726Z,99775.50
2023-04-26T21:48:08.481Z,99790.38
2023-04-26T21:50:36.986Z,99775.63
2023-04-26T21:53:05.397Z,99792.81
2023-04-26T21:55:33.986Z,99793.25
2023-04-26T21:58:03.871Z,99803.22
2023-04-26T22:00:32.428Z,99804.97
2023-04-26T22:03:01.201Z,99815.19
2023-04-26T22:05:29.589Z,99802.94
2023-04-26T22:07:58.004Z,99806.69
2023-04-26T22:10:26.250Z,99836.59
2023-04-26T22:12:54.475Z,99785.78
2023-04-26T22:15:24.683Z,99798.97
2023-04-26T22:17:53.114Z,99806.38
2023-04-26T22:20:21.616Z,99799.59
2023-04-26T22:22:49.882Z,99809.53
2023-04-26T22:25:18.138Z,99804.03
2023-04-26T22:27:46.445Z,99808.75
2023-04-26T22:30:24.536Z,99798.34
2023-04-26T22:32:57.463Z,99806.06
2023-04-26T22:35:26.598Z,99811.56
2023-04-26T22:37:55.077Z,99808.88
2023-04-26T22:40:23.360Z,99835.66
2023-04-26T22:42:51.810Z,99807.03
2023-04-26T22:45:20.420Z,99810.31
2023-04-26T22:47:48.865Z,99815.03
2023-04-26T22:50:18.618Z,99818.19
2023-04-26T22:52:46.970Z,99820.72
2023-04-26T22:55:15.277Z,99805.13
2023-04-26T22:57:43.709Z,99796.31
2023-04-26T23:00:14.715Z,99796.31
2023-04-26T23:02:43.514Z,99801.97
2023-04-26T23:05:12.513Z,99803.56
2023-04-26T23:07:42.561Z,99804.50
2023-04-26T23:10:11.348Z,99795.19
2023-04-26T23:12:40.760Z,99785.13
2023-04-26T23:15:10.152Z,99805.75
2023-04-26T23:17:39.016Z,99810.63
2023-04-26T23:20:12.436Z,99787.94
2023-04-26T23:22:42.969Z,99788.28
2023-04-26T23:25:12.118Z,99801.47
2023-04-26T23:27:40.510Z,99802.59
2023-04-26T23:30:09.979Z,99797.22
2023-04-26T23:32:38.395Z,99800.84
2023-04-26T23:35:07.762Z,99789.69
2023-04-26T23:37:36.292Z,99792.34
2023-04-26T23:40:08.939Z,99792.81
2023-04-26T23:42:37.455Z,99791.09
2023-04-26T23:45:07.921Z,99790.00
2023-04-26T23:47:36.379Z,99782.44
2023-04-26T23:50:05.040Z,99789.81
2023-04-26T23:52:33.319Z,99783.19
2023-04-26T23:55:01.531Z,99773.44
2023-04-26T23:57:31.211Z,99783.81
2023-04-26T23:59:59.695Z,99787.25
